Time;durP1;ratioP1;P1;durP2;ratioP2;P2;SDS_P1;SDS_P2;PMS_P1;PMS_P2;Temp;Humidity;BMP_temperature;BMP_pressure;BME280_temperature;BME280_humidity;BME280_pressure;Samples;Min_cycle;Max_cycle;Signal;HPM_P1;HPM_P2
2024/01/21 00:04:44;;;;;;;25.10;10.70;;;;;;;-0.21;91.91;100394.13;273077;1269;23563;-82
2024/01/21 00:10:45;;;;;;;21.10;11.30;;;;;;;-0.26;92.36;100396.81;273464;1269;22189;-82
2024/01/21 00:17:08;;;;;;;24.40;11.70;;;;;;;-0.30;92.68;100399.41;273784;1257;23210;-82
2024/01/21 00:23:10;;;;;;;25.40;10.70;;;;;;;-0.34;93.51;100412.22;272618;1269;22752;-81
2024/01/21 00:29:11;;;;;;;25.60;11.20;;;;;;;-0.43;94.57;100417.65;272358;1269;22545;-83
2024/01/21 00:35:13;;;;;;;34.50;15.80;;;;;;;-0.51;95.51;100426.20;271906;1273;22520;-82
2024/01/21 00:41:15;;;;;;;31.80;14.60;;;;;;;-0.55;96.14;100431.25;272559;1269;22338;-82
2024/01/21 00:47:37;;;;;;;34.10;15.50;;;;;;;-0.61;96.71;100428.45;273555;1275;22247;-82
2024/01/21 00:53:40;;;;;;;40.80;17.60;;;;;;;-0.66;97.40;100432.85;273278;1273;22524;-82
2024/01/21 00:59:49;;;;;;;36.10;16.30;;;;;;;-0.68;97.89;100446.89;271953;1260;23244;-82
2024/01/21 01:05:50;;;;;;;34.20;17.20;;;;;;;-0.72;98.16;100448.02;270726;1261;22760;-82
2024/01/21 01:11:53;;;;;;;33.20;16.60;;;;;;;-0.74;98.70;100450.92;273685;1269;22269;-83
2024/01/21 01:17:57;;;;;;;40.90;19.00;;;;;;;-0.73;99.19;100470.54;273416;1269;23552;-82
2024/01/21 01:24:41;;;;;;;40.30;19.60;;;;;;;-0.73;99.58;100469.21;273692;1269;22926;-82
2024/01/21 01:30:43;;;;;;;38.50;18.60;;;;;;;-0.72;99.86;100460.77;272938;1269;22299;-83
2024/01/21 01:37:05;;;;;;;49.40;19.40;;;;;;;-0.69;99.96;100460.98;273464;1269;23184;-82
2024/01/21 01:43:09;;;;;;;36.20;17.90;;;;;;;-0.67;99.88;100464.27;273311;1265;22144;-83
2024/01/21 01:49:33;;;;;;;29.90;14.60;;;;;;;-0.66;99.89;100470.61;273682;1276;22391;-83
2024/01/21 01:55:56;;;;;;;29.60;14.10;;;;;;;-0.64;99.89;100468.31;273439;1276;23453;-82
2024/01/21 02:02:40;;;;;;;30.20;15.30;;;;;;;-0.63;99.85;100462.17;273031;1266;22203;-83
2024/01/21 02:10:06;;;;;;;35.40;15.40;;;;;;;-0.60;99.90;100470.41;272748;1269;22520;-82
2024/01/21 02:16:49;;;;;;;36.20;15.10;;;;;;;-0.56;99.71;100472.08;272728;1273;23480;-82
2024/01/21 02:22:56;;;;;;;29.30;14.60;;;;;;;-0.52;99.65;100483.43;273204;1269;22207;-82
2024/01/21 02:29:03;;;;;;;31.70;14.40;;;;;;;-0.50;99.39;100497.98;273399;1270;23440;-83
2024/01/21 02:35:48;;;;;;;28.60;12.80;;;;;;;-0.48;99.29;100493.62;272474;1262;25425;-83
2024/01/21 02:42:10;;;;;;;28.80;12.80;;;;;;;-0.46;99.43;100491.80;273489;1275;23127;-84
2024/01/21 02:48:44;;;;;;;26.20;11.70;;;;;;;-0.44;99.46;100495.99;273355;1272;23466;-84
2024/01/21 02:54:46;;;;;;;27.60;12.90;;;;;;;-0.43;99.29;100504.60;273111;1273;23139;-84
2024/01/21 03:01:42;;;;;;;25.40;12.70;;;;;;;-0.41;99.23;100507.52;271378;1272;22695;-83
2024/01/21 03:08:24;;;;;;;22.80;9.50;;;;;;;-0.41;99.44;100507.58;271571;1270;22682;-85
2024/01/21 03:14:51;;;;;;;28.60;13.30;;;;;;;-0.40;99.42;100507.02;273576;1272;22224;-84
2024/01/21 03:21:17;;;;;;;28.70;13.30;;;;;;;-0.39;99.16;100511.27;273593;1273;23190;-83
2024/01/21 03:27:45;;;;;;;32.10;14.00;;;;;;;-0.39;99.14;100513.66;273462;1275;22281;-83
2024/01/21 03:34:21;;;;;;;24.00;13.00;;;;;;;-0.37;99.27;100517.91;271490;1275;22309;-83
2024/01/21 03:40:55;;;;;;;27.70;13.40;;;;;;;-0.36;99.14;100522.97;273711;1254;22496;-83
2024/01/21 03:47:17;;;;;;;31.90;14.70;;;;;;;-0.36;99.27;100522.21;273764;1277;22240;-84
2024/01/21 03:54:01;;;;;;;34.30;15.00;;;;;;;-0.36;99.47;100524.48;273530;1274;22288;-84
2024/01/21 04:00:10;;;;;;;34.90;15.00;;;;;;;-0.36;99.59;100526.84;273705;1277;23431;-83
2024/01/21 04:06:42;;;;;;;35.60;15.50;;;;;;;-0.36;99.49;100525.06;273552;1273;22209;-84
2024/01/21 04:21:15;;;;;;;33.50;15.10;;;;;;;-0.36;99.71;100523.41;272884;1276;22308;-84
2024/01/21 04:35:06;;;;;;;37.30;17.20;;;;;;;-0.37;99.64;100538.30;272900;1272;22447;-84
2024/01/21 04:41:08;;;;;;;34.90;17.20;;;;;;;-0.38;99.51;100545.67;272974;1274;23100;-84
2024/01/21 04:47:30;;;;;;;43.00;19.00;;;;;;;-0.37;99.85;100545.89;273197;1275;22216;-84
2024/01/21 04:53:57;;;;;;;38.40;19.90;;;;;;;-0.36;99.98;100545.35;273483;1277;22206;-84
2024/01/21 05:00:19;;;;;;;;;;;;;;;-0.37;100.00;100547.61;273538;1276;22467;-84
2024/01/21 05:06:41;;;;;;;40.80;18.20;;;;;;;-0.38;100.00;100552.83;273296;1272;22199;-85
2024/01/21 05:13:47;;;;;;;39.90;18.90;;;;;;;-0.39;100.00;100556.54;273664;1276;22192;-84
2024/01/21 05:21:16;;;;;;;49.30;21.20;;;;;;;-0.39;100.00;100565.15;271552;1278;24042;-84
2024/01/21 05:28:09;;;;;;;46.90;22.50;;;;;;;-0.38;100.00;100578.34;273442;1276;23349;-84
2024/01/21 05:35:58;;;;;;;47.50;21.30;;;;;;;-0.37;100.00;100576.56;265322;1277;5382956;-84
2024/01/21 05:43:18;;;;;;;44.10;20.60;;;;;;;-0.40;100.00;100575.37;268174;1280;22557;-83
2024/01/21 05:51:22;;;;;;;60.20;23.60;;;;;;;-0.39;100.00;100576.83;269560;1292;22603;-83
2024/01/21 05:58:42;;;;;;;52.40;23.30;;;;;;;-0.38;100.00;100580.00;267744;1283;22561;-83
2024/01/21 06:05:05;;;;;;;55.20;23.30;;;;;;;-0.37;100.00;100580.23;271207;1281;22271;-84
2024/01/21 06:11:57;;;;;;;48.90;22.90;;;;;;;-0.37;100.00;100579.85;270482;1270;23110;-84
2024/01/21 06:19:08;;;;;;;51.80;22.80;;;;;;;-0.36;100.00;100575.59;273557;1272;22386;-84
2024/01/21 06:33:15;;;;;;;48.80;21.40;;;;;;;-0.40;100.00;100569.66;273377;1278;22273;-84
2024/01/21 06:54:49;;;;;;;48.80;21.90;;;;;;;-0.32;100.00;100566.61;272109;1273;22175;-84
2024/01/21 07:00:56;;;;;;;46.00;22.30;;;;;;;-0.30;100.00;100563.18;271174;1269;22589;-84
2024/01/21 07:07:24;;;;;;;52.50;23.80;;;;;;;-0.28;100.00;100570.98;270650;1273;22243;-84
2024/01/21 07:13:50;;;;;;;50.50;21.20;;;;;;;-0.28;100.00;100576.36;272067;1276;22666;-84
2024/01/21 07:20:36;;;;;;;49.60;20.50;;;;;;;-0.23;100.00;100580.90;273145;1277;23489;-85
2024/01/21 07:34:09;;;;;;;61.30;30.40;;;;;;;-0.13;100.00;100583.51;273490;1277;23388;-83
2024/01/21 07:48:59;;;;;;;63.80;29.90;;;;;;;0.01;100.00;100573.99;273668;1270;23302;-83
2024/01/21 07:55:54;;;;;;;56.20;28.20;;;;;;;0.09;100.00;100573.09;273559;1270;22199;-85
2024/01/21 08:10:15;;;;;;;61.10;26.70;;;;;;;0.26;100.00;100578.21;273560;1272;22198;-85
2024/01/21 08:16:43;;;;;;;56.20;26.60;;;;;;;0.34;100.00;100588.34;273366;1277;22209;-85
2024/01/21 08:45:46;;;;;;;51.80;23.40;;;;;;;0.70;100.00;100599.37;273548;1270;22192;-86
2024/01/21 08:52:16;;;;;;;49.50;24.30;;;;;;;0.75;100.00;100602.21;273491;1270;22277;-85
2024/01/21 08:58:50;;;;;;;47.50;22.60;;;;;;;0.81;100.00;100603.14;273473;1270;22685;-86
2024/01/21 09:27:58;;;;;;;47.20;21.40;;;;;;;1.05;100.00;100628.76;272049;1273;22678;-86
2024/01/21 09:40:59;;;;;;;45.30;21.60;;;;;;;1.21;100.00;100619.91;273398;1277;22227;-86
2024/01/21 09:54:55;;;;;;;52.50;23.40;;;;;;;1.45;100.00;100603.48;272049;1270;22316;-86
2024/01/21 10:00:57;;;;;;;46.00;22.00;;;;;;;1.59;100.00;100605.04;273224;1270;22832;-86
2024/01/21 10:06:59;;;;;;;44.80;21.20;;;;;;;1.68;100.00;100599.82;273222;1270;23249;-87
2024/01/21 10:13:03;;;;;;;44.30;20.90;;;;;;;1.79;100.00;100597.60;273308;1271;22801;-85
2024/01/21 10:19:05;;;;;;;46.50;21.80;;;;;;;1.91;100.00;100593.86;273429;1271;22217;-86
2024/01/21 10:25:08;;;;;;;45.90;22.60;;;;;;;1.97;100.00;100591.77;273145;1270;22384;-86
2024/01/21 10:31:11;;;;;;;44.90;20.60;;;;;;;2.04;100.00;100593.23;273292;1269;23333;-86
2024/01/21 10:37:15;;;;;;;59.20;23.90;;;;;;;2.17;100.00;100589.41;273162;1270;22206;-85
2024/01/21 10:43:17;;;;;;;48.70;20.90;;;;;;;2.33;99.70;100584.64;273291;1267;22293;-85
2024/01/21 10:49:20;;;;;;;41.60;20.50;;;;;;;2.38;99.43;100591.58;273142;1270;23309;-86
2024/01/21 10:55:22;;;;;;;60.80;20.90;;;;;;;2.44;99.99;100591.36;273324;1269;23528;-87
2024/01/21 11:01:24;;;;;;;48.80;21.50;;;;;;;2.65;100.00;100581.83;273375;1270;22215;-86
2024/01/21 11:07:26;;;;;;;42.50;21.40;;;;;;;2.87;99.19;100575.27;273153;1270;23036;-87
2024/01/21 11:13:47;;;;;;;46.20;20.10;;;;;;;2.92;99.50;100572.04;272287;1271;23554;-87
2024/01/21 11:19:55;;;;;;;43.60;19.10;;;;;;;2.95;99.95;100562.98;273112;1270;22412;-87
2024/01/21 11:25:57;;;;;;;34.90;16.90;;;;;;;3.09;99.98;100549.34;272538;1269;22476;-87
2024/01/21 11:32:08;;;;;;;33.10;16.20;;;;;;;3.16;99.50;100537.77;273132;1271;22474;-87
2024/01/21 11:38:10;;;;;;;36.10;16.90;;;;;;;3.08;99.75;100525.55;271828;1270;22210;-88
2024/01/21 11:44:24;;;;;;;37.20;16.90;;;;;;;3.12;99.88;100514.29;273328;1269;22292;-88
2024/01/21 11:50:26;;;;;;;42.80;18.70;;;;;;;3.08;100.00;100505.94;273262;1270;22211;-88
2024/01/21 11:56:28;;;;;;;32.40;16.00;;;;;;;3.01;99.99;100509.02;272175;1270;22940;-88
2024/01/21 12:02:30;;;;;;;34.60;15.00;;;;;;;2.99;100.00;100511.09;273294;1271;22201;-88
2024/01/21 12:08:32;;;;;;;39.30;16.20;;;;;;;3.07;100.00;100509.31;273384;1262;22318;-87
2024/01/21 12:14:34;;;;;;;37.30;16.10;;;;;;;3.11;100.00;100496.02;273115;1270;22473;-87
2024/01/21 12:20:36;;;;;;;35.10;15.70;;;;;;;3.08;100.00;100483.61;273215;1270;22985;-88
2024/01/21 12:26:38;;;;;;;39.00;17.30;;;;;;;3.02;100.00;100475.08;273026;1270;22289;-87
2024/01/21 12:32:40;;;;;;;35.80;15.20;;;;;;;2.94;100.00;100466.91;273017;1267;22287;-90
2024/01/21 12:38:42;;;;;;;35.50;15.50;;;;;;;3.02;100.00;100459.44;273384;1271;23183;-88
2024/01/21 12:44:44;;;;;;;36.30;15.70;;;;;;;3.11;100.00;100457.59;273239;1271;22210;-89
2024/01/21 12:50:46;;;;;;;45.40;19.30;;;;;;;3.21;100.00;100449.33;273202;1270;22302;-90
2024/01/21 12:56:48;;;;;;;51.20;22.90;;;;;;;3.29;99.98;100448.36;273099;1271;22269;-88
2024/01/21 13:02:50;;;;;;;54.90;25.50;;;;;;;3.27;99.87;100444.02;272572;1271;22729;-89
2024/01/21 13:08:52;;;;;;;52.20;26.50;;;;;;;3.18;100.00;100432.65;271839;1269;22349;-89
2024/01/21 13:14:54;;;;;;;56.40;29.10;;;;;;;3.07;99.99;100433.27;273224;1271;22543;-89
2024/01/21 13:20:57;;;;;;;58.60;27.90;;;;;;;2.95;99.90;100447.35;272349;1270;22494;-88
2024/01/21 13:27:07;;;;;;;58.40;28.90;;;;;;;2.80;99.96;100449.77;273060;1270;23051;-88
2024/01/21 13:33:12;;;;;;;61.00;26.10;;;;;;;2.68;100.00;100449.68;272959;1270;23621;-88
2024/01/21 13:39:14;;;;;;;58.30;27.40;;;;;;;2.61;100.00;100444.25;272955;1264;22816;-88
2024/01/21 13:45:16;;;;;;;63.70;28.50;;;;;;;2.54;100.00;100441.94;273209;1271;22192;-88
2024/01/21 13:51:18;;;;;;;63.20;27.30;;;;;;;2.49;100.00;100435.30;272742;1271;22369;-88
2024/01/21 13:57:20;;;;;;;61.90;27.10;;;;;;;2.45;100.00;100433.62;273195;1270;23003;-90
2024/01/21 14:03:22;;;;;;;51.20;24.90;;;;;;;2.43;100.00;100424.00;272743;1270;22485;-89
2024/01/21 14:09:24;;;;;;;52.50;25.60;;;;;;;2.43;100.00;100419.80;272405;1271;22302;-89
2024/01/21 14:15:26;;;;;;;58.00;26.30;;;;;;;2.39;100.00;100423.14;272621;1271;22347;-89
2024/01/21 14:21:28;;;;;;;58.70;26.80;;;;;;;2.33;100.00;100429.05;273529;1271;22380;-88
2024/01/21 14:27:30;;;;;;;62.30;27.80;;;;;;;2.25;100.00;100432.96;273595;1270;22193;-89
2024/01/21 14:33:32;;;;;;;57.30;24.80;;;;;;;2.18;100.00;100435.46;273429;1271;23451;-89
2024/01/21 14:39:34;;;;;;;52.10;24.10;;;;;;;2.09;100.00;100439.59;273373;1271;23090;-88
2024/01/21 14:45:36;;;;;;;53.90;26.30;;;;;;;2.01;100.00;100437.35;273408;1271;22217;-89
2024/01/21 14:51:38;;;;;;;63.80;27.20;;;;;;;1.93;100.00;100436.45;272825;1270;22196;-89
2024/01/21 14:57:40;;;;;;;61.70;28.60;;;;;;;1.82;99.99;100431.30;272210;1271;22271;-88
2024/01/21 15:03:43;;;;;;;62.10;27.90;;;;;;;1.70;100.00;100431.98;271634;1272;23045;-89
2024/01/21 15:09:46;;;;;;;54.70;25.50;;;;;;;1.51;100.00;100442.86;273112;1271;22422;-89
2024/01/21 15:15:47;;;;;;;60.50;26.70;;;;;;;1.34;100.00;100448.66;272161;1272;22452;-89
2024/01/21 15:21:49;;;;;;;62.70;27.90;;;;;;;1.22;100.00;100457.90;270634;1271;23444;-88
2024/01/21 15:27:51;;;;;;;64.70;26.90;;;;;;;1.11;100.00;100469.39;272946;1271;23525;-89
2024/01/21 15:33:53;;;;;;;58.90;29.00;;;;;;;0.96;100.00;100470.81;273059;1272;22281;-89
2024/01/21 15:39:57;;;;;;;69.50;30.50;;;;;;;0.80;100.00;100465.16;273250;1272;22406;-89
2024/01/21 15:45:59;;;;;;;59.30;28.40;;;;;;;0.60;100.00;100458.33;272965;1265;22597;-89
2024/01/21 15:52:02;;;;;;;67.30;29.10;;;;;;;0.42;100.00;100454.17;273000;1271;23391;-89
2024/01/21 15:58:04;;;;;;;69.20;31.70;;;;;;;0.27;100.00;100450.92;273363;1271;22280;-89
2024/01/21 16:04:06;;;;;;;66.90;33.20;;;;;;;0.15;100.00;100450.61;273057;1274;22631;-89
2024/01/21 16:10:08;;;;;;;65.00;33.20;;;;;;;0.03;100.00;100453.77;272478;1271;22410;-89
2024/01/21 16:16:10;;;;;;;82.50;40.30;;;;;;;-0.13;100.00;100447.89;273185;1271;22435;-89
2024/01/21 16:22:13;;;;;;;117.40;51.70;;;;;;;-0.25;100.00;100445.09;273160;1272;22843;-89
2024/01/21 16:28:14;;;;;;;87.70;41.60;;;;;;;-0.31;100.00;100450.48;272486;1272;22232;-89
2024/01/21 16:34:17;;;;;;;103.40;48.50;;;;;;;-0.41;100.00;100445.25;273308;1271;23558;-88
2024/01/21 16:40:19;;;;;;;106.80;50.60;;;;;;;-0.54;100.00;100439.64;273289;1272;22317;-90
2024/01/21 16:46:21;;;;;;;110.30;54.30;;;;;;;-0.69;100.00;100429.02;272245;1272;22594;-88
2024/01/21 16:52:27;;;;;;;118.90;55.80;;;;;;;-0.81;100.00;100420.13;272331;1272;22486;-89
2024/01/21 16:58:29;;;;;;;;;;;;;;;-0.88;100.00;100412.05;273064;1270;23277;-89
2024/01/21 17:04:32;;;;;;;107.80;52.20;;;;;;;-0.94;100.00;100399.95;273203;1275;23037;-89
2024/01/21 17:10:43;;;;;;;95.40;48.30;;;;;;;-0.99;100.00;100399.13;273100;1272;22277;-89
2024/01/21 17:16:48;;;;;;;124.50;54.80;;;;;;;-1.06;100.00;100391.43;272177;1272;22359;-89
2024/01/21 17:22:50;;;;;;;101.10;49.50;;;;;;;-1.20;100.00;100390.16;273200;1272;22218;-89
2024/01/21 17:28:52;;;;;;;129.90;62.00;;;;;;;-1.36;100.00;100384.41;273052;1270;23430;-89
2024/01/21 17:36:00;;;;;;;148.50;73.70;;;;;;;-1.45;100.00;100368.30;265832;1273;10152060;-89
2024/01/21 17:49:56;;;;;;;146.20;74.20;;;;;;;-1.66;100.00;100387.02;272907;1274;23353;-88
2024/01/21 17:55:57;;;;;;;142.10;73.30;;;;;;;-1.69;100.00;100389.67;273364;1270;22391;-89
2024/01/21 18:02:02;;;;;;;142.20;67.50;;;;;;;-1.69;100.00;100391.73;257485;1272;20002351;-90
2024/01/21 18:08:04;;;;;;;136.40;65.90;;;;;;;-1.66;100.00;100399.27;273108;1274;22228;-89
2024/01/21 18:14:07;;;;;;;311.30;121.80;;;;;;;-1.63;100.00;100409.10;272753;1272;22463;-89
2024/01/21 18:20:11;;;;;;;260.10;106.10;;;;;;;-1.56;100.00;100397.75;273189;1273;23564;-92
2024/01/21 18:26:17;;;;;;;151.30;69.70;;;;;;;-1.49;100.00;100385.11;272572;1272;22925;-89
2024/01/21 18:32:23;;;;;;;140.00;70.30;;;;;;;-1.43;100.00;100372.50;273268;1271;23044;-90
2024/01/21 18:38:25;;;;;;;;;;;;;;;-1.42;100.00;100381.54;273220;1272;22439;-89
2024/01/21 18:44:27;;;;;;;137.30;67.30;;;;;;;-1.40;100.00;100362.84;271039;1269;22560;-90
2024/01/21 18:50:30;;;;;;;212.50;96.50;;;;;;;-1.38;100.00;100329.92;273152;1273;23527;-90
2024/01/21 18:56:34;;;;;;;170.20;79.40;;;;;;;-1.40;100.00;100341.73;271758;1270;22430;-89
2024/01/21 19:02:37;;;;;;;185.10;89.60;;;;;;;-1.45;100.00;100342.58;270964;1275;22959;-90
2024/01/21 19:08:38;;;;;;;185.40;83.20;;;;;;;-1.45;100.00;100332.20;273149;1272;22420;-90
2024/01/21 19:14:42;;;;;;;207.40;99.00;;;;;;;-1.47;100.00;100334.67;272648;1270;22392;-90
2024/01/21 19:20:44;;;;;;;199.00;96.50;;;;;;;-1.49;100.00;100336.66;273215;1275;23336;-90
2024/01/21 19:26:50;;;;;;;213.10;101.70;;;;;;;-1.53;100.00;100315.00;272702;1274;22359;-90
2024/01/21 19:32:54;;;;;;;214.70;105.20;;;;;;;-1.53;100.00;100299.33;272233;1275;24403;-90
2024/01/21 19:39:05;;;;;;;236.00;110.40;;;;;;;-1.54;100.00;100292.23;270402;1272;22317;-90
2024/01/21 19:45:22;;;;;;;265.60;121.80;;;;;;;-1.52;100.00;100280.63;272634;1272;23098;-90
2024/01/21 19:51:24;;;;;;;245.30;110.80;;;;;;;-1.51;100.00;100281.70;270944;1272;22722;-89
2024/01/21 19:57:49;;;;;;;230.90;106.10;;;;;;;-1.52;100.00;100288.80;271958;1270;22228;-89
2024/01/21 20:03:52;;;;;;;237.50;106.60;;;;;;;-1.53;100.00;100277.41;273029;1274;22383;-88
2024/01/21 20:09:59;;;;;;;249.90;116.40;;;;;;;-1.57;100.00;100263.05;271864;1274;22334;-89
2024/01/21 20:16:10;;;;;;;268.70;123.60;;;;;;;-1.62;100.00;100246.77;273111;1272;22204;-89
2024/01/21 20:22:12;;;;;;;;;;;;;;;-1.65;100.00;100239.51;273153;1274;22686;-88
2024/01/21 20:28:20;;;;;;;225.50;109.50;;;;;;;-1.70;100.00;100248.89;272956;1271;22749;-88
2024/01/21 20:34:29;;;;;;;294.90;129.90;;;;;;;-1.70;100.00;100247.88;272489;1269;22689;-89
2024/01/21 20:40:31;;;;;;;266.70;125.10;;;;;;;-1.75;100.00;100262.25;273328;1270;22196;-87
2024/01/21 20:46:36;;;;;;;235.60;106.60;;;;;;;-1.77;100.00;100259.18;273271;1271;22297;-88
2024/01/21 20:52:38;;;;;;;279.10;129.40;;;;;;;-1.89;100.00;100250.67;273090;1271;22203;-88
2024/01/21 20:58:43;;;;;;;261.70;121.40;;;;;;;-1.99;100.00;100252.50;273215;1276;22299;-89
2024/01/21 21:04:46;;;;;;;248.30;116.20;;;;;;;-2.09;100.00;100268.13;273079;1271;22437;-89
2024/01/21 21:10:48;;;;;;;236.50;106.30;;;;;;;-2.17;100.00;100261.39;273248;1272;22448;-88
2024/01/21 21:16:50;;;;;;;274.90;127.80;;;;;;;-2.27;100.00;100253.09;273156;1270;22606;-88
2024/01/21 21:22:52;;;;;;;260.90;119.90;;;;;;;-2.35;100.00;100256.36;273182;1273;22321;-88
2024/01/21 21:28:54;;;;;;;239.80;115.80;;;;;;;-2.43;100.00;100253.80;272183;1276;23118;-87
2024/01/21 21:34:56;;;;;;;263.60;119.90;;;;;;;-2.49;100.00;100245.45;273132;1273;23240;-88
2024/01/21 21:40:58;;;;;;;264.60;126.60;;;;;;;-2.57;100.00;100254.09;272369;1272;22722;-88
2024/01/21 21:47:00;;;;;;;258.10;123.60;;;;;;;-2.75;100.00;100250.44;271696;1273;22342;-87
2024/01/21 21:53:02;;;;;;;283.70;130.40;;;;;;;-2.94;100.00;100247.30;272270;1278;23339;-87
2024/01/21 21:59:04;;;;;;;260.00;120.70;;;;;;;-3.01;100.00;100243.27;271735;1274;22310;-87
2024/01/21 22:05:06;;;;;;;260.00;123.60;;;;;;;-3.03;100.00;100250.27;273353;1270;22200;-87
2024/01/21 22:11:08;;;;;;;252.00;119.60;;;;;;;-3.09;100.00;100250.28;273233;1270;22396;-87
2024/01/21 22:57:02;;;;;;;253.10;112.60;;;;;;;-3.86;100.00;100213.95;273446;1276;23485;-85
2024/01/21 23:11:49;;;;;;;257.70;113.80;;;;;;;-3.91;100.00;100207.48;273637;1271;22172;-84
2024/01/21 23:18:32;;;;;;;251.40;108.70;;;;;;;-3.95;100.00;100198.46;273190;1256;23086;-84
2024/01/21 23:24:35;;;;;;;234.60;105.20;;;;;;;-3.99;100.00;100198.51;270250;1271;23483;-84
2024/01/21 23:30:38;;;;;;;252.10;115.20;;;;;;;-4.01;100.00;100200.27;271083;1273;22549;-84
2024/01/21 23:52:01;;;;;;;239.00;101.70;;;;;;;-4.32;100.00;100185.83;272419;1271;24227;-84
